Time;durP1;ratioP1;P1;durP2;ratioP2;P2;SDS_P1;SDS_P2;PMS_P1;PMS_P2;Temp;Humidity;BMP_temperature;BMP_pressure;BME280_temperature;BME280_humidity;BME280_pressure;Samples;Min_cycle;Max_cycle;Signal;HPM_P1;HPM_P2
2023/10/01 00:01:58;;;;;;;0.30;0.20;;;;;;;;;;4993770;28;20038;-82
2023/10/01 00:04:24;;;;;;;0.20;0.10;;;;;;;;;;5004946;28;20049;-82
2023/10/01 00:06:52;;;;;;;0.43;0.43;;;;;;;;;;4972287;28;20034;-83
2023/10/01 00:09:19;;;;;;;0.20;0.20;;;;;;;;;;4991019;28;20513;-81
2023/10/01 00:11:46;;;;;;;0.80;0.63;;;;;;;;;;4970120;28;20074;-82
2023/10/01 00:14:16;;;;;;;0.20;0.10;;;;;;;;;;4987363;28;20045;-81
2023/10/01 00:16:42;;;;;;;0.20;0.15;;;;;;;;;;4972064;28;20041;-81
2023/10/01 00:19:10;;;;;;;0.45;0.45;;;;;;;;;;4986735;28;20048;-82
2023/10/01 00:21:36;;;;;;;0.20;0.10;;;;;;;;;;4986884;28;20096;-82
2023/10/01 00:24:02;;;;;;;0.20;0.00;;;;;;;;;;4971309;28;20145;-82
2023/10/01 00:26:29;;;;;;;0.80;0.40;;;;;;;;;;4985763;28;20046;-83
2023/10/01 00:28:56;;;;;;;0.73;0.35;;;;;;;;;;4966185;28;20045;-82
2023/10/01 00:31:22;;;;;;;0.20;0.20;;;;;;;;;;4983115;28;20057;-82
2023/10/01 00:33:48;;;;;;;0.30;0.15;;;;;;;;;;4990882;28;20502;-81
2023/10/01 00:36:14;;;;;;;0.20;0.10;;;;;;;;;;4980834;28;20046;-82
2023/10/01 00:38:40;;;;;;;0.40;0.20;;;;;;;;;;4984057;28;20038;-81
2023/10/01 00:41:08;;;;;;;0.20;0.10;;;;;;;;;;4975206;28;20042;-82
2023/10/01 00:43:35;;;;;;;0.20;0.10;;;;;;;;;;4983457;28;20046;-82
2023/10/01 00:46:02;;;;;;;0.38;0.38;;;;;;;;;;4971743;28;20046;-82
2023/10/01 00:48:28;;;;;;;0.20;0.10;;;;;;;;;;4968763;28;20050;-82
2023/10/01 00:50:56;;;;;;;0.35;0.32;;;;;;;;;;4969546;28;20114;-82
2023/10/01 00:53:22;;;;;;;0.20;0.10;;;;;;;;;;4985989;28;20081;-82
2023/10/01 00:55:51;;;;;;;0.30;0.20;;;;;;;;;;4967867;28;20073;-82
2023/10/01 00:58:18;;;;;;;0.20;0.10;;;;;;;;;;4984265;28;20042;-82
2023/10/01 01:00:45;;;;;;;0.20;0.10;;;;;;;;;;4969272;28;20065;-82
2023/10/01 01:03:18;;;;;;;0.30;0.30;;;;;;;;;;4974323;28;20045;-82
2023/10/01 01:06:36;;;;;;;0.30;0.20;;;;;;;;;;4984738;28;20040;-82
2023/10/01 01:08:46;;;;;;;0.20;0.20;;;;;;;;;;4975109;28;20129;-82
2023/10/01 01:11:15;;;;;;;0.40;0.30;;;;;;;;;;4988277;28;20046;-82
2023/10/01 01:13:43;;;;;;;0.38;0.17;;;;;;;;;;4985294;28;20534;-82
2023/10/01 01:16:10;;;;;;;0.20;0.00;;;;;;;;;;4977753;28;20046;-81
2023/10/01 01:18:36;;;;;;;0.20;0.10;;;;;;;;;;4968509;28;20422;-82
2023/10/01 01:21:09;;;;;;;0.20;0.10;;;;;;;;;;4970068;28;20073;-81
2023/10/01 01:23:36;;;;;;;0.88;0.30;;;;;;;;;;4968634;28;20039;-82
2023/10/01 01:26:02;;;;;;;0.20;0.08;;;;;;;;;;4974248;28;20034;-82
2023/10/01 01:28:30;;;;;;;0.20;0.10;;;;;;;;;;4986042;28;20046;-82
2023/10/01 01:30:59;;;;;;;0.20;0.10;;;;;;;;;;4990430;28;20120;-82
2023/10/01 01:33:40;;;;;;;0.73;0.40;;;;;;;;;;4968621;28;20507;-83
2023/10/01 01:36:10;;;;;;;0.30;0.20;;;;;;;;;;4970424;28;20045;-83
2023/10/01 01:38:37;;;;;;;0.43;0.20;;;;;;;;;;4972751;28;20053;-82
2023/10/01 01:41:03;;;;;;;0.38;0.32;;;;;;;;;;4972507;28;20058;-83
2023/10/01 01:43:32;;;;;;;0.40;0.35;;;;;;;;;;4969191;28;20045;-83
2023/10/01 01:46:00;;;;;;;0.20;0.10;;;;;;;;;;4968677;28;20043;-82
2023/10/01 01:50:58;;;;;;;0.28;0.20;;;;;;;;;;4990930;28;20070;-83
2023/10/01 01:53:26;;;;;;;0.50;0.30;;;;;;;;;;4970291;28;20491;-82
2023/10/01 01:55:56;;;;;;;0.20;0.17;;;;;;;;;;4968894;28;20077;-82
2023/10/01 01:58:24;;;;;;;0.43;0.43;;;;;;;;;;4985209;28;20034;-83
2023/10/01 02:03:37;;;;;;;0.40;0.40;;;;;;;;;;5006484;28;20178;-82
2023/10/01 02:06:06;;;;;;;0.20;0.15;;;;;;;;;;4984793;28;20046;-83
2023/10/01 02:08:35;;;;;;;0.20;0.10;;;;;;;;;;4971466;28;20513;-82
2023/10/01 02:11:04;;;;;;;0.20;0.20;;;;;;;;;;4984569;28;20038;-82
2023/10/01 02:13:30;;;;;;;0.73;0.40;;;;;;;;;;4980140;28;20038;-82
2023/10/01 02:16:18;;;;;;;0.20;0.10;;;;;;;;;;4993893;28;20042;-83
2023/10/01 02:18:42;;;;;;;0.20;0.10;;;;;;;;;;4991468;28;20050;-83
2023/10/01 02:21:16;;;;;;;0.28;0.10;;;;;;;;;;4973476;28;20169;-83
2023/10/01 02:23:42;;;;;;;0.20;0.00;;;;;;;;;;4990590;28;20045;-82
2023/10/01 02:26:08;;;;;;;0.20;0.10;;;;;;;;;;5000557;28;20038;-83
2023/10/01 02:28:36;;;;;;;0.20;0.10;;;;;;;;;;4992790;28;20435;-84
2023/10/01 02:31:06;;;;;;;0.20;0.10;;;;;;;;;;5007074;28;20095;-83
2023/10/01 02:36:22;;;;;;;0.20;0.00;;;;;;;;;;4992498;28;20046;-82
2023/10/01 02:38:53;;;;;;;0.20;0.10;;;;;;;;;;4965756;28;20050;-83
2023/10/01 02:41:20;;;;;;;0.20;0.20;;;;;;;;;;4969970;28;20407;-83
2023/10/01 02:43:50;;;;;;;0.30;0.30;;;;;;;;;;4976444;28;20057;-83
2023/10/01 02:46:26;;;;;;;0.40;0.30;;;;;;;;;;4985729;28;20254;-82
2023/10/01 02:48:54;;;;;;;0.32;0.32;;;;;;;;;;4982213;28;20564;-83
2023/10/01 02:51:32;;;;;;;0.30;0.30;;;;;;;;;;4971723;28;20038;-83
2023/10/01 02:54:04;;;;;;;0.20;0.10;;;;;;;;;;4985906;28;20588;-82
2023/10/01 02:56:37;;;;;;;0.20;0.10;;;;;;;;;;4987975;28;20042;-83
2023/10/01 02:59:12;;;;;;;0.20;0.20;;;;;;;;;;4991355;28;20050;-84
2023/10/01 03:01:39;;;;;;;0.38;0.20;;;;;;;;;;5002302;28;20051;-82
2023/10/01 03:04:14;;;;;;;0.20;0.20;;;;;;;;;;4972462;28;20403;-83
2023/10/01 03:06:55;;;;;;;0.20;0.10;;;;;;;;;;4975204;28;20490;-83
2023/10/01 03:09:34;;;;;;;0.20;0.10;;;;;;;;;;5006382;28;20042;-83
2023/10/01 03:15:00;;;;;;;0.47;0.47;;;;;;;;;;4989168;28;20051;-81
2023/10/01 03:17:38;;;;;;;0.88;0.35;;;;;;;;;;4998213;28;20065;-81
2023/10/01 03:23:01;;;;;;;0.57;0.57;;;;;;;;;;4967959;28;20470;-81
2023/10/01 03:25:30;;;;;;;0.22;0.17;;;;;;;;;;4985948;28;20034;-80
2023/10/01 03:27:59;;;;;;;0.20;0.10;;;;;;;;;;4985727;28;20102;-81
2023/10/01 03:30:32;;;;;;;0.20;0.20;;;;;;;;;;4974182;28;20038;-80
2023/10/01 03:33:01;;;;;;;0.28;0.28;;;;;;;;;;4989886;28;20100;-80
2023/10/01 03:35:27;;;;;;;0.50;0.50;;;;;;;;;;4988400;28;20278;-81
2023/10/01 03:38:14;;;;;;;0.30;0.20;;;;;;;;;;4991218;28;20077;-82
2023/10/01 03:43:32;;;;;;;0.20;0.10;;;;;;;;;;4985224;28;20247;-82
2023/10/01 03:46:06;;;;;;;;;;;;;;;;;;4986106;28;20034;-80
2023/10/01 03:48:57;;;;;;;0.25;0.17;;;;;;;;;;4985899;28;19921;-80
2023/10/01 03:51:28;;;;;;;0.20;0.10;;;;;;;;;;4988289;28;20783;-81
2023/10/01 03:53:59;;;;;;;0.85;0.40;;;;;;;;;;4970192;28;20066;-80
2023/10/01 03:56:30;;;;;;;0.22;0.17;;;;;;;;;;4988558;28;20507;-80
2023/10/01 03:58:56;;;;;;;0.25;0.15;;;;;;;;;;5003593;28;20092;-80
2023/10/01 04:01:33;;;;;;;0.40;0.20;;;;;;;;;;4971823;28;20051;-79
2023/10/01 04:04:00;;;;;;;0.57;0.57;;;;;;;;;;4985833;28;20096;-80
2023/10/01 04:06:27;;;;;;;0.20;0.10;;;;;;;;;;4972032;28;20044;-82
2023/10/01 04:08:58;;;;;;;0.60;0.55;;;;;;;;;;4987973;28;20124;-80
2023/10/01 04:11:41;;;;;;;0.38;0.20;;;;;;;;;;4987570;28;20506;-80
2023/10/01 04:14:10;;;;;;;0.20;0.10;;;;;;;;;;4969991;28;20046;-82
2023/10/01 04:16:36;;;;;;;0.40;0.22;;;;;;;;;;4983504;28;20042;-80
2023/10/01 04:19:10;;;;;;;0.20;0.05;;;;;;;;;;4988507;28;20431;-80
2023/10/01 04:21:36;;;;;;;0.20;0.10;;;;;;;;;;4989508;28;20093;-81
2023/10/01 04:24:02;;;;;;;0.30;0.30;;;;;;;;;;4988485;28;20042;-79
2023/10/01 04:26:30;;;;;;;0.20;0.10;;;;;;;;;;4988392;28;20034;-80
2023/10/01 04:28:59;;;;;;;0.30;0.17;;;;;;;;;;4970310;28;20042;-81
2023/10/01 04:34:11;;;;;;;0.20;0.15;;;;;;;;;;4987384;28;20162;-83
2023/10/01 04:36:42;;;;;;;0.20;0.13;;;;;;;;;;4981123;28;20590;-80
2023/10/01 04:39:09;;;;;;;0.57;0.45;;;;;;;;;;4983469;28;20121;-82
2023/10/01 04:41:35;;;;;;;0.30;0.30;;;;;;;;;;4989939;28;20039;-80
2023/10/01 04:44:07;;;;;;;1.58;0.30;;;;;;;;;;4988895;28;20124;-80
2023/10/01 04:46:39;;;;;;;0.20;0.17;;;;;;;;;;4963368;28;20492;-80
2023/10/01 04:49:08;;;;;;;0.20;0.00;;;;;;;;;;4972230;28;20038;-79
2023/10/01 04:51:47;;;;;;;0.20;0.20;;;;;;;;;;4987283;28;20046;-80
2023/10/01 04:54:21;;;;;;;0.20;0.13;;;;;;;;;;4985398;28;20045;-80
2023/10/01 04:56:48;;;;;;;0.20;0.03;;;;;;;;;;4986593;28;20574;-80
2023/10/01 04:59:18;;;;;;;0.35;0.30;;;;;;;;;;4982904;28;20042;-81
2023/10/01 05:01:47;;;;;;;0.57;0.57;;;;;;;;;;4966818;28;20058;-80
2023/10/01 05:04:14;;;;;;;0.43;0.20;;;;;;;;;;4969212;28;20138;-80
2023/10/01 05:06:43;;;;;;;0.20;0.20;;;;;;;;;;4971903;28;20042;-80
2023/10/01 05:09:09;;;;;;;0.30;0.20;;;;;;;;;;5003664;28;20042;-82
2023/10/01 05:11:35;;;;;;;0.30;0.30;;;;;;;;;;4987617;28;20490;-81
2023/10/01 05:14:06;;;;;;;0.20;0.10;;;;;;;;;;4983321;28;20034;-82
2023/10/01 05:16:38;;;;;;;0.40;0.20;;;;;;;;;;4971809;28;20044;-83
2023/10/01 05:19:10;;;;;;;0.20;0.13;;;;;;;;;;4978534;28;20034;-81
2023/10/01 05:21:36;;;;;;;;;;;;;;;;;;4968470;28;20038;-80
2023/10/01 05:24:02;;;;;;;0.20;0.10;;;;;;;;;;4978447;28;19922;-80
2023/10/01 05:26:35;;;;;;;0.20;0.00;;;;;;;;;;4985781;28;20045;-80
2023/10/01 05:29:02;;;;;;;;;;;;;;;;;;4979374;28;20120;-80
2023/10/01 05:31:29;;;;;;;3.30;0.60;;;;;;;;;;4974058;28;20378;-79
2023/10/01 05:33:58;;;;;;;0.22;0.20;;;;;;;;;;4965422;28;20044;-81
2023/10/01 05:36:26;;;;;;;0.32;0.10;;;;;;;;;;4986650;28;20584;-81
2023/10/01 05:38:53;;;;;;;0.20;0.20;;;;;;;;;;4985880;28;20121;-80
2023/10/01 05:41:32;;;;;;;0.63;0.52;;;;;;;;;;4967877;28;20038;-81
2023/10/01 05:44:01;;;;;;;0.20;0.10;;;;;;;;;;4984916;28;20121;-82
2023/10/01 05:46:28;;;;;;;0.20;0.10;;;;;;;;;;4987429;28;20042;-81
2023/10/01 05:49:00;;;;;;;0.20;0.20;;;;;;;;;;4974128;28;20034;-80
2023/10/01 05:51:45;;;;;;;0.30;0.20;;;;;;;;;;4991025;28;20042;-79
2023/10/01 05:54:18;;;;;;;0.30;0.20;;;;;;;;;;4987039;28;20050;-81
2023/10/01 05:56:47;;;;;;;0.85;0.30;;;;;;;;;;4984535;28;20068;-79
2023/10/01 05:59:14;;;;;;;0.25;0.15;;;;;;;;;;4988349;28;20042;-79
2023/10/01 06:01:41;;;;;;;0.20;0.10;;;;;;;;;;4984771;28;20123;-81
2023/10/01 06:04:12;;;;;;;0.20;0.10;;;;;;;;;;5006378;28;20053;-79
2023/10/01 06:06:42;;;;;;;0.20;0.10;;;;;;;;;;4975370;28;20048;-80
2023/10/01 06:09:14;;;;;;;0.20;0.10;;;;;;;;;;4974407;28;20605;-81
2023/10/01 06:11:42;;;;;;;4.95;1.08;;;;;;;;;;4976034;28;20062;-79
2023/10/01 06:17:00;;;;;;;0.20;0.10;;;;;;;;;;4991524;28;20038;-79
2023/10/01 06:19:32;;;;;;;0.20;0.20;;;;;;;;;;4990172;28;20038;-79
2023/10/01 06:22:12;;;;;;;0.20;0.10;;;;;;;;;;4986727;28;20101;-80
2023/10/01 06:24:39;;;;;;;0.28;0.17;;;;;;;;;;4976184;28;20070;-81
2023/10/01 06:27:06;;;;;;;0.30;0.20;;;;;;;;;;4983517;28;20038;-79
2023/10/01 06:29:33;;;;;;;0.50;0.28;;;;;;;;;;4969785;28;20049;-80
2023/10/01 06:32:02;;;;;;;1.02;0.95;;;;;;;;;;4968779;28;20051;-80
2023/10/01 06:34:39;;;;;;;0.20;0.10;;;;;;;;;;4967888;28;20506;-80
2023/10/01 06:37:05;;;;;;;0.20;0.10;;;;;;;;;;4989799;28;20038;-80
2023/10/01 06:39:37;;;;;;;0.20;0.10;;;;;;;;;;4979832;28;20038;-81
2023/10/01 06:42:19;;;;;;;0.20;0.10;;;;;;;;;;4994998;28;20034;-81
2023/10/01 06:44:49;;;;;;;0.33;0.10;;;;;;;;;;4975628;28;20304;-79
2023/10/01 06:47:16;;;;;;;0.30;0.30;;;;;;;;;;4993935;28;20347;-80
2023/10/01 06:49:57;;;;;;;0.22;0.22;;;;;;;;;;4992784;28;20038;-80
2023/10/01 06:52:34;;;;;;;0.20;0.13;;;;;;;;;;4990876;28;20472;-82
2023/10/01 06:55:01;;;;;;;0.20;0.00;;;;;;;;;;5006732;28;20054;-80
2023/10/01 06:57:28;;;;;;;0.20;0.10;;;;;;;;;;4975054;28;20043;-81
2023/10/01 06:59:57;;;;;;;0.20;0.10;;;;;;;;;;4977351;28;20077;-80
2023/10/01 07:02:25;;;;;;;0.43;0.20;;;;;;;;;;4990005;28;20122;-79
2023/10/01 07:04:56;;;;;;;0.20;0.13;;;;;;;;;;4977683;28;20118;-81
2023/10/01 07:07:27;;;;;;;0.35;0.35;;;;;;;;;;4972134;28;20792;-79
2023/10/01 07:10:00;;;;;;;0.20;0.10;;;;;;;;;;4990600;28;20110;-83
2023/10/01 07:12:26;;;;;;;0.25;0.22;;;;;;;;;;4988602;28;20118;-81
2023/10/01 07:14:53;;;;;;;0.20;0.17;;;;;;;;;;4973522;28;20633;-80
2023/10/01 07:17:25;;;;;;;0.63;0.52;;;;;;;;;;4973026;28;20054;-80
2023/10/01 07:20:18;;;;;;;0.85;0.30;;;;;;;;;;4988486;28;20101;-80
2023/10/01 07:22:44;;;;;;;0.30;0.30;;;;;;;;;;4972601;28;20046;-81
2023/10/01 07:25:28;;;;;;;0.30;0.30;;;;;;;;;;4992596;28;20040;-79
2023/10/01 07:27:55;;;;;;;0.40;0.20;;;;;;;;;;4970893;28;20072;-81
2023/10/01 07:30:39;;;;;;;0.20;0.10;;;;;;;;;;4971673;28;20053;-79
2023/10/01 07:33:05;;;;;;;0.50;0.47;;;;;;;;;;4973404;28;20050;-80
2023/10/01 07:35:33;;;;;;;4.03;1.23;;;;;;;;;;4971514;28;20046;-81
2023/10/01 07:37:59;;;;;;;0.20;0.10;;;;;;;;;;4973301;28;20027;-81
2023/10/01 07:40:25;;;;;;;0.20;0.10;;;;;;;;;;4989418;28;20121;-81
2023/10/01 07:42:57;;;;;;;0.63;0.63;;;;;;;;;;4971832;28;20125;-81
2023/10/01 07:45:24;;;;;;;0.20;0.10;;;;;;;;;;4988836;28;20117;-80
2023/10/01 07:47:50;;;;;;;0.20;0.10;;;;;;;;;;4986330;28;20096;-81
2023/10/01 07:50:16;;;;;;;0.20;0.13;;;;;;;;;;4982070;28;20104;-80
2023/10/01 07:52:44;;;;;;;0.30;0.30;;;;;;;;;;4970480;28;20053;-80
2023/10/01 07:55:29;;;;;;;0.40;0.30;;;;;;;;;;4986892;28;20498;-80
2023/10/01 07:58:22;;;;;;;0.20;0.10;;;;;;;;;;4982454;28;20030;-83
2023/10/01 08:00:47;;;;;;;0.20;0.00;;;;;;;;;;4984590;28;20086;-81
2023/10/01 08:05:48;;;;;;;0.20;0.10;;;;;;;;;;4989145;28;20130;-81
2023/10/01 08:08:37;;;;;;;0.20;0.10;;;;;;;;;;4972227;28;20045;-82
2023/10/01 08:11:37;;;;;;;0.82;0.50;;;;;;;;;;4989259;28;20038;-81
2023/10/01 08:13:55;;;;;;;0.20;0.10;;;;;;;;;;4988818;28;20511;-81
2023/10/01 08:16:22;;;;;;;0.20;0.10;;;;;;;;;;4990360;28;20802;-82
2023/10/01 08:18:51;;;;;;;0.28;0.17;;;;;;;;;;4976056;28;20050;-82
2023/10/01 08:21:17;;;;;;;0.47;0.47;;;;;;;;;;4973793;28;20584;-81
2023/10/01 08:23:57;;;;;;;1.42;0.30;;;;;;;;;;4978417;28;20049;-80
2023/10/01 08:26:43;;;;;;;0.25;0.25;;;;;;;;;;5006876;28;20046;-80
2023/10/01 08:29:09;;;;;;;0.20;0.10;;;;;;;;;;5014546;28;20054;-81
2023/10/01 08:34:23;;;;;;;0.20;0.10;;;;;;;;;;5012810;28;20146;-83
2023/10/01 08:36:54;;;;;;;0.50;0.38;;;;;;;;;;4980515;28;20038;-80
2023/10/01 08:39:22;;;;;;;0.20;0.10;;;;;;;;;;4995878;28;20117;-81
2023/10/01 08:41:51;;;;;;;0.20;0.10;;;;;;;;;;5001103;28;20135;-81
2023/10/01 08:44:33;;;;;;;0.40;0.30;;;;;;;;;;4995998;28;20097;-79
2023/10/01 08:47:21;;;;;;;0.20;0.10;;;;;;;;;;5002939;28;20041;-81
2023/10/01 08:49:51;;;;;;;0.20;0.10;;;;;;;;;;4984440;28;20106;-81
2023/10/01 08:52:19;;;;;;;0.75;0.40;;;;;;;;;;4979254;28;20033;-82
2023/10/01 08:54:48;;;;;;;0.20;0.20;;;;;;;;;;4997484;28;20114;-83
2023/10/01 08:57:17;;;;;;;0.65;0.32;;;;;;;;;;4989590;28;20600;-79
2023/10/01 08:59:47;;;;;;;0.20;0.10;;;;;;;;;;4977060;28;20046;-81
2023/10/01 09:02:15;;;;;;;0.20;0.17;;;;;;;;;;4991206;28;20045;-80
2023/10/01 09:04:45;;;;;;;0.20;0.10;;;;;;;;;;4991337;28;20179;-82
2023/10/01 09:07:18;;;;;;;0.20;0.10;;;;;;;;;;4992075;28;20037;-81
2023/10/01 09:10:05;;;;;;;0.25;0.22;;;;;;;;;;4992976;28;20043;-80
2023/10/01 09:12:45;;;;;;;0.20;0.10;;;;;;;;;;4997970;23;20046;-83
2023/10/01 09:15:27;;;;;;;0.20;0.10;;;;;;;;;;4986470;28;20136;-87
2023/10/01 09:18:12;;;;;;;0.20;0.00;;;;;;;;;;4989965;28;20038;-84
2023/10/01 09:24:12;;;;;;;0.20;0.20;;;;;;;;;;4982349;28;20379;-85
2023/10/01 09:26:53;;;;;;;0.20;0.13;;;;;;;;;;4964399;28;20109;-83
2023/10/01 09:29:22;;;;;;;0.20;0.20;;;;;;;;;;4968054;28;20049;-82
2023/10/01 09:31:52;;;;;;;0.20;0.13;;;;;;;;;;4968696;28;20046;-84
2023/10/01 09:34:31;;;;;;;0.45;0.45;;;;;;;;;;4968525;28;20050;-84
2023/10/01 09:37:03;;;;;;;0.30;0.30;;;;;;;;;;4968271;28;20034;-82
2023/10/01 09:39:38;;;;;;;0.20;0.10;;;;;;;;;;4948402;28;20040;-83
2023/10/01 09:42:22;;;;;;;0.20;0.20;;;;;;;;;;4982600;28;20049;-85
2023/10/01 09:44:50;;;;;;;0.47;0.47;;;;;;;;;;4964049;28;20129;-82
2023/10/01 09:47:17;;;;;;;0.68;0.30;;;;;;;;;;4979104;28;20446;-81
2023/10/01 09:49:47;;;;;;;1.35;0.55;;;;;;;;;;4981990;28;20070;-86
2023/10/01 09:52:27;;;;;;;0.20;0.10;;;;;;;;;;4981433;28;20050;-83
2023/10/01 09:55:10;;;;;;;0.38;0.20;;;;;;;;;;4964180;28;20089;-86
2023/10/01 09:57:37;;;;;;;0.20;0.20;;;;;;;;;;4965155;28;20050;-84
2023/10/01 10:00:17;;;;;;;0.20;0.20;;;;;;;;;;4966762;28;20050;-83
2023/10/01 10:02:51;;;;;;;0.63;0.35;;;;;;;;;;4966080;28;20174;-83
2023/10/01 10:05:27;;;;;;;0.47;0.32;;;;;;;;;;4964485;28;20509;-83
2023/10/01 10:10:52;;;;;;;0.20;0.10;;;;;;;;;;4982972;28;20055;-86
2023/10/01 10:13:48;;;;;;;0.20;0.00;;;;;;;;;;4984734;28;20043;-82
2023/10/01 10:16:31;;;;;;;0.55;0.52;;;;;;;;;;4967592;28;20035;-86
2023/10/01 10:19:16;;;;;;;0.20;0.10;;;;;;;;;;4964938;28;20075;-83
2023/10/01 10:24:29;;;;;;;1.13;1.02;;;;;;;;;;4983920;28;20050;-84
2023/10/01 10:27:17;;;;;;;0.38;0.38;;;;;;;;;;4964057;28;20416;-85
2023/10/01 10:29:56;;;;;;;0.43;0.32;;;;;;;;;;4966806;28;20503;-84
2023/10/01 10:32:26;;;;;;;0.43;0.35;;;;;;;;;;4970331;28;20038;-82
2023/10/01 10:35:14;;;;;;;0.20;0.10;;;;;;;;;;4950195;28;20170;-85
2023/10/01 10:37:53;;;;;;;0.47;0.47;;;;;;;;;;4970943;28;20089;-84
2023/10/01 10:42:57;;;;;;;0.20;0.20;;;;;;;;;;4983763;28;20082;-84
2023/10/01 10:45:26;;;;;;;0.20;0.10;;;;;;;;;;4968098;28;20105;-84
2023/10/01 10:48:02;;;;;;;0.38;0.38;;;;;;;;;;4970732;28;20055;-85
2023/10/01 10:50:50;;;;;;;1.05;1.05;;;;;;;;;;4985062;28;20045;-86
2023/10/01 10:53:20;;;;;;;0.20;0.10;;;;;;;;;;4965691;28;20403;-82
2023/10/01 10:55:53;;;;;;;0.20;0.10;;;;;;;;;;4971702;28;20047;-82
2023/10/01 10:58:19;;;;;;;0.90;0.65;;;;;;;;;;4969563;28;20459;-82
2023/10/01 11:00:46;;;;;;;0.90;0.90;;;;;;;;;;4971307;28;20139;-84
2023/10/01 11:03:12;;;;;;;0.20;0.00;;;;;;;;;;4971267;28;20041;-82
2023/10/01 11:05:49;;;;;;;0.20;0.10;;;;;;;;;;4968748;28;20389;-82
2023/10/01 11:08:25;;;;;;;0.20;0.00;;;;;;;;;;4968417;28;20046;-84
2023/10/01 11:10:54;;;;;;;1.00;1.00;;;;;;;;;;4968041;28;20082;-83
2023/10/01 11:13:36;;;;;;;1.05;0.95;;;;;;;;;;4985353;28;20483;-81
2023/10/01 11:16:13;;;;;;;;;;;;;;;;;;4984726;28;20061;-84
2023/10/01 11:18:41;;;;;;;0.28;0.28;;;;;;;;;;4968158;28;20369;-86
2023/10/01 11:21:11;;;;;;;0.20;0.10;;;;;;;;;;4969931;28;20046;-84
2023/10/01 11:23:38;;;;;;;0.20;0.10;;;;;;;;;;4967816;28;20303;-84
2023/10/01 11:26:07;;;;;;;0.20;0.03;;;;;;;;;;4969072;28;20045;-83
2023/10/01 11:28:41;;;;;;;0.20;0.10;;;;;;;;;;4968211;28;20120;-84
2023/10/01 11:31:22;;;;;;;0.20;0.20;;;;;;;;;;4981334;28;20520;-84
2023/10/01 11:33:57;;;;;;;0.40;0.40;;;;;;;;;;4980808;28;20043;-84
2023/10/01 11:36:23;;;;;;;0.20;0.10;;;;;;;;;;4969005;28;20035;-83
2023/10/01 11:38:50;;;;;;;0.30;0.30;;;;;;;;;;4953321;28;20053;-86
2023/10/01 11:41:38;;;;;;;0.20;0.15;;;;;;;;;;4969155;28;20046;-83
2023/10/01 11:44:05;;;;;;;0.73;0.73;;;;;;;;;;4966167;28;20046;-86
2023/10/01 11:46:35;;;;;;;0.25;0.25;;;;;;;;;;4968220;28;20041;-85
2023/10/01 11:49:08;;;;;;;0.43;0.43;;;;;;;;;;4968514;28;20466;-88
2023/10/01 11:51:54;;;;;;;0.50;0.45;;;;;;;;;;4985485;28;20070;-85
2023/10/01 11:54:45;;;;;;;0.30;0.30;;;;;;;;;;4969764;28;20046;-83
2023/10/01 11:57:22;;;;;;;0.52;0.20;;;;;;;;;;4968472;28;20597;-83
2023/10/01 11:59:55;;;;;;;0.30;0.10;;;;;;;;;;4971250;28;20058;-84
2023/10/01 12:02:29;;;;;;;0.20;0.20;;;;;;;;;;4967205;28;20046;-81
2023/10/01 12:04:57;;;;;;;0.38;0.25;;;;;;;;;;4986848;28;20101;-83
2023/10/01 12:07:26;;;;;;;0.50;0.50;;;;;;;;;;4968668;28;20125;-82
2023/10/01 12:09:53;;;;;;;0.20;0.10;;;;;;;;;;4982965;28;20043;-86
2023/10/01 12:12:39;;;;;;;0.25;0.17;;;;;;;;;;4967559;28;20483;-85
2023/10/01 12:17:50;;;;;;;0.70;0.70;;;;;;;;;;4973656;28;20435;-85
2023/10/01 12:20:22;;;;;;;0.40;0.10;;;;;;;;;;4969286;28;20049;-83
2023/10/01 12:23:10;;;;;;;0.20;0.10;;;;;;;;;;4968777;28;20046;-84
2023/10/01 12:25:47;;;;;;;0.20;0.10;;;;;;;;;;4972263;28;20035;-83
2023/10/01 12:28:29;;;;;;;0.20;0.20;;;;;;;;;;4985035;28;20050;-83
2023/10/01 12:31:08;;;;;;;0.70;0.70;;;;;;;;;;4956270;28;20606;-82
2023/10/01 12:33:43;;;;;;;0.20;0.00;;;;;;;;;;4955277;28;20038;-82
2023/10/01 12:36:31;;;;;;;0.45;0.45;;;;;;;;;;4968789;28;20082;-81
2023/10/01 12:41:47;;;;;;;0.93;0.38;;;;;;;;;;4969384;28;20461;-83
2023/10/01 12:44:32;;;;;;;0.60;0.22;;;;;;;;;;4967685;28;20177;-84
2023/10/01 12:47:02;;;;;;;0.20;0.10;;;;;;;;;;4954374;28;20170;-84
2023/10/01 12:49:32;;;;;;;0.93;0.30;;;;;;;;;;4968261;28;20046;-83
2023/10/01 12:51:59;;;;;;;0.32;0.32;;;;;;;;;;4970169;28;20042;-84
2023/10/01 12:54:25;;;;;;;0.38;0.38;;;;;;;;;;4984083;28;20094;-83
2023/10/01 12:57:55;;;;;;;0.22;0.20;;;;;;;;;;4968941;28;20045;-85
2023/10/01 13:00:21;;;;;;;0.25;0.20;;;;;;;;;;4951972;28;20065;-84
2023/10/01 13:02:45;;;;;;;0.50;0.50;;;;;;;;;;4967339;28;20067;-83
2023/10/01 13:05:21;;;;;;;0.28;0.22;;;;;;;;;;4981512;28;20527;-85
2023/10/01 13:07:50;;;;;;;0.20;0.20;;;;;;;;;;4982307;28;20042;-87
2023/10/01 13:10:18;;;;;;;0.30;0.30;;;;;;;;;;4986625;28;20039;-84
2023/10/01 13:12:56;;;;;;;0.20;0.13;;;;;;;;;;4981619;28;20042;-84
2023/10/01 13:15:33;;;;;;;0.30;0.30;;;;;;;;;;4971898;28;20065;-85
2023/10/01 13:18:01;;;;;;;0.20;0.20;;;;;;;;;;4970551;28;20494;-83
2023/10/01 13:20:28;;;;;;;0.20;0.03;;;;;;;;;;4981972;28;20050;-84
2023/10/01 13:22:59;;;;;;;0.57;0.52;;;;;;;;;;4966680;28;20065;-85
2023/10/01 13:25:26;;;;;;;0.20;0.20;;;;;;;;;;4970255;28;20082;-82
2023/10/01 13:28:01;;;;;;;0.68;0.35;;;;;;;;;;4967356;28;20134;-84
2023/10/01 13:30:29;;;;;;;0.20;0.10;;;;;;;;;;4967876;28;20178;-83
2023/10/01 13:33:10;;;;;;;0.98;0.85;;;;;;;;;;4967181;28;20054;-82
2023/10/01 13:35:36;;;;;;;0.52;0.52;;;;;;;;;;4969592;28;20338;-83
2023/10/01 13:38:25;;;;;;;0.52;0.52;;;;;;;;;;4969442;28;20043;-84
2023/10/01 14:08:43;;;;;;;1.83;1.13;;;;;;;;;;4985273;28;20823;-84
2023/10/01 14:11:10;;;;;;;0.30;0.30;;;;;;;;;;4969780;28;20042;-85
2023/10/01 14:13:36;;;;;;;0.57;0.47;;;;;;;;;;4969227;28;20054;-84
2023/10/01 14:16:16;;;;;;;0.30;0.20;;;;;;;;;;4969766;28;20569;-83
2023/10/01 14:18:53;;;;;;;0.65;0.65;;;;;;;;;;4968503;28;20061;-85
2023/10/01 14:21:27;;;;;;;0.30;0.20;;;;;;;;;;4985366;28;20055;-83
2023/10/01 14:23:57;;;;;;;0.77;0.65;;;;;;;;;;4947492;28;20075;-84
2023/10/01 14:26:35;;;;;;;0.20;0.10;;;;;;;;;;4970140;28;20035;-84
2023/10/01 14:29:05;;;;;;;0.82;0.30;;;;;;;;;;4966392;28;20039;-83
2023/10/01 14:31:41;;;;;;;0.55;0.55;;;;;;;;;;4969193;28;20038;-84
2023/10/01 14:34:08;;;;;;;0.38;0.38;;;;;;;;;;4985462;28;20045;-83
2023/10/01 14:36:41;;;;;;;0.20;0.17;;;;;;;;;;4970383;28;20035;-82
2023/10/01 14:39:09;;;;;;;0.20;0.20;;;;;;;;;;4972743;28;20563;-83
2023/10/01 14:41:41;;;;;;;0.45;0.43;;;;;;;;;;4984867;28;20043;-82
2023/10/01 14:44:07;;;;;;;0.57;0.57;;;;;;;;;;4969151;28;20077;-88
2023/10/01 14:46:34;;;;;;;0.22;0.22;;;;;;;;;;4971744;28;20050;-85
2023/10/01 14:49:06;;;;;;;0.90;0.52;;;;;;;;;;4970211;28;20046;-83
2023/10/01 14:51:33;;;;;;;0.30;0.22;;;;;;;;;;4972797;28;20549;-84
2023/10/01 14:53:59;;;;;;;0.20;0.10;;;;;;;;;;4981438;28;20460;-85
2023/10/01 14:56:31;;;;;;;0.85;0.85;;;;;;;;;;4974687;28;20054;-86
2023/10/01 14:58:58;;;;;;;0.30;0.17;;;;;;;;;;4967686;28;20039;-83
2023/10/01 15:01:24;;;;;;;1.55;0.98;;;;;;;;;;4964809;28;20509;-85
2023/10/01 15:03:56;;;;;;;0.20;0.20;;;;;;;;;;4971424;28;20042;-87
2023/10/01 15:06:23;;;;;;;9.00;1.17;;;;;;;;;;4971431;28;20073;-85
2023/10/01 15:09:27;;;;;;;1.23;0.20;;;;;;;;;;4975807;28;20064;-84
2023/10/01 15:12:26;;;;;;;0.40;0.40;;;;;;;;;;4977340;28;20530;-84
2023/10/01 15:14:55;;;;;;;0.32;0.30;;;;;;;;;;5023119;23;20506;-80
2023/10/01 15:17:21;;;;;;;1.00;0.90;;;;;;;;;;5012774;28;20041;-80
2023/10/01 15:19:52;;;;;;;0.35;0.35;;;;;;;;;;5012697;28;20113;-80
2023/10/01 15:22:18;;;;;;;0.40;0.40;;;;;;;;;;5008632;28;20041;-79
2023/10/01 15:24:45;;;;;;;0.20;0.10;;;;;;;;;;5003695;28;20034;-80
2023/10/01 15:27:12;;;;;;;0.20;0.15;;;;;;;;;;5008537;28;20116;-80
2023/10/01 15:29:39;;;;;;;0.65;0.63;;;;;;;;;;4994627;28;20058;-80
2023/10/01 15:32:17;;;;;;;0.20;0.10;;;;;;;;;;4984885;28;20141;-82
2023/10/01 15:34:43;;;;;;;0.65;0.50;;;;;;;;;;4984303;28;20048;-82
2023/10/01 15:37:11;;;;;;;0.50;0.50;;;;;;;;;;5001849;28;20052;-82
2023/10/01 15:39:38;;;;;;;0.30;0.15;;;;;;;;;;4989375;28;20422;-82
2023/10/01 15:45:15;;;;;;;1.55;0.40;;;;;;;;;;4998499;28;20500;-81
2023/10/01 15:47:43;;;;;;;0.75;0.40;;;;;;;;;;5010439;28;20558;-79
2023/10/01 15:50:13;;;;;;;0.47;0.47;;;;;;;;;;4987757;28;20041;-82
2023/10/01 15:52:46;;;;;;;0.30;0.30;;;;;;;;;;4991155;28;20038;-80
2023/10/01 15:55:13;;;;;;;0.32;0.30;;;;;;;;;;5002234;28;20046;-82
2023/10/01 15:57:40;;;;;;;0.20;0.03;;;;;;;;;;4993116;28;20042;-80
2023/10/01 16:02:51;;;;;;;0.93;0.85;;;;;;;;;;5011763;28;20038;-84
2023/10/01 16:05:17;;;;;;;0.32;0.32;;;;;;;;;;4993647;28;20064;-82
2023/10/01 16:07:44;;;;;;;0.57;0.50;;;;;;;;;;4995105;28;20050;-82
2023/10/01 16:10:14;;;;;;;0.20;0.10;;;;;;;;;;5012551;28;20073;-82
2023/10/01 16:12:40;;;;;;;0.20;0.10;;;;;;;;;;4995368;28;20641;-81
2023/10/01 16:15:10;;;;;;;0.30;0.20;;;;;;;;;;5009887;28;20072;-82
2023/10/01 16:17:40;;;;;;;4.20;0.70;;;;;;;;;;4997830;28;20046;-81
2023/10/01 16:20:08;;;;;;;0.22;0.13;;;;;;;;;;5007512;28;20429;-82
2023/10/01 16:22:35;;;;;;;0.50;0.47;;;;;;;;;;4995859;28;20161;-82
2023/10/01 16:25:10;;;;;;;0.70;0.40;;;;;;;;;;4994259;28;20097;-82
2023/10/01 16:27:37;;;;;;;0.30;0.08;;;;;;;;;;5007719;28;20038;-80
2023/10/01 16:30:19;;;;;;;0.40;0.25;;;;;;;;;;4995028;28;20034;-81